Time;durP1;ratioP1;P1;durP2;ratioP2;P2;SDS_P1;SDS_P2;PMS_P1;PMS_P2;Temp;Humidity;BMP_temperature;BMP_pressure;BME280_temperature;BME280_humidity;BME280_pressure;Samples;Min_cycle;Max_cycle;Signal;HPM_P1;HPM_P2
2022/09/29 00:03:17;;;;;;;12.45;6.28;;;;;;;4.22;93.08;99806.19;10362484;28;20104;-76
2022/09/29 00:08:21;;;;;;;15.40;6.97;;;;;;;4.14;93.24;99805.06;10361657;28;20100;-77
2022/09/29 00:13:23;;;;;;;12.32;6.38;;;;;;;4.09;93.25;99801.50;10370237;28;20145;-76
2022/09/29 00:18:27;;;;;;;15.18;6.97;;;;;;;4.05;93.20;99805.69;10362014;28;20053;-77
2022/09/29 00:23:32;;;;;;;14.18;7.00;;;;;;;3.97;93.28;99802.91;10358656;28;20533;-76
2022/09/29 00:28:36;;;;;;;15.07;7.57;;;;;;;3.93;93.12;99801.03;10359795;28;20535;-76
2022/09/29 00:33:40;;;;;;;14.15;6.82;;;;;;;3.90;93.27;99800.97;10342752;28;20410;-78
2022/09/29 00:38:43;;;;;;;12.57;6.53;;;;;;;3.81;93.23;99811.06;10357038;28;20108;-78
2022/09/29 00:44:01;;;;;;;14.48;6.68;;;;;;;3.76;93.40;99810.06;10359820;28;20049;-77
2022/09/29 00:49:10;;;;;;;14.30;6.97;;;;;;;3.75;93.38;99803.13;10354740;28;20054;-77
2022/09/29 00:54:13;;;;;;;14.90;7.38;;;;;;;3.70;93.31;99803.84;10325890;28;20518;-77
2022/09/29 00:59:23;;;;;;;16.05;6.88;;;;;;;3.66;93.60;99796.88;10357014;28;20489;-77
2022/09/29 01:04:26;;;;;;;16.53;7.27;;;;;;;3.64;93.54;99801.09;10353793;28;20461;-77
2022/09/29 01:09:32;;;;;;;13.65;7.03;;;;;;;3.63;93.57;99809.69;10341965;28;20060;-78
2022/09/29 01:14:37;;;;;;;15.98;7.03;;;;;;;3.60;93.52;99806.13;10359617;28;20050;-78
2022/09/29 01:19:52;;;;;;;13.15;7.05;;;;;;;3.54;93.62;99802.56;10358827;28;20120;-78
2022/09/29 01:25:19;;;;;;;12.40;6.80;;;;;;;3.52;93.46;99804.19;10359067;28;20050;-78
2022/09/29 01:30:42;;;;;;;14.35;6.35;;;;;;;3.47;93.59;99805.78;10358245;28;20136;-78
2022/09/29 01:36:24;;;;;;;12.27;6.65;;;;;;;3.43;93.86;99798.75;10359186;28;20057;-77
2022/09/29 01:41:39;;;;;;;12.98;7.22;;;;;;;3.39;93.78;99811.56;10355265;28;20528;-79
2022/09/29 01:46:49;;;;;;;16.85;6.65;;;;;;;3.40;93.69;99809.00;10358919;28;20049;-77
2022/09/29 01:51:59;;;;;;;;;;;;;;;3.34;93.75;99809.69;10359469;28;20093;-77
2022/09/29 01:57:18;;;;;;;12.95;6.05;;;;;;;3.27;93.71;99815.53;10353132;28;19932;-78
2022/09/29 02:03:09;;;;;;;11.55;5.95;;;;;;;3.25;93.80;99812.00;10349314;28;20661;-77
2022/09/29 02:08:16;;;;;;;11.75;6.05;;;;;;;3.26;93.66;99815.47;10259987;28;20062;-77
2022/09/29 02:13:22;;;;;;;10.55;5.78;;;;;;;3.20;93.90;99816.19;10357913;28;20917;-76
2022/09/29 02:18:36;;;;;;;11.65;5.82;;;;;;;3.14;93.74;99818.56;10357200;28;20814;-78
2022/09/29 02:23:39;;;;;;;11.95;6.30;;;;;;;3.08;93.70;99815.75;10355841;28;20049;-77
2022/09/29 02:28:42;;;;;;;10.95;5.90;;;;;;;3.06;93.85;99812.25;10319955;28;20141;-77
2022/09/29 02:33:44;;;;;;;12.35;6.03;;;;;;;2.99;93.66;99813.78;10334823;28;20409;-76
2022/09/29 02:38:52;;;;;;;14.77;5.72;;;;;;;2.99;93.67;99809.50;10336889;28;20524;-77
2022/09/29 02:44:06;;;;;;;11.48;6.10;;;;;;;2.99;93.77;99821.56;10355514;28;20077;-77
2022/09/29 02:49:33;;;;;;;12.82;5.75;;;;;;;2.94;93.97;99821.41;10336323;28;20568;-77
2022/09/29 02:55:03;;;;;;;11.35;5.85;;;;;;;2.91;93.92;99829.06;10356050;28;20080;-76
2022/09/29 03:00:13;;;;;;;14.45;7.30;;;;;;;2.89;93.92;99822.06;10330217;28;20061;-77
2022/09/29 03:05:16;;;;;;;;;;;;;;;2.91;94.29;99833.34;10353532;28;20065;-77
2022/09/29 03:10:19;;;;;;;13.02;5.85;;;;;;;2.89;94.00;99829.84;10331426;28;20352;-79
2022/09/29 03:15:21;;;;;;;11.07;5.75;;;;;;;2.90;94.28;99841.91;10345154;28;20058;-78
2022/09/29 03:20:23;;;;;;;10.40;5.40;;;;;;;2.82;94.36;99844.25;10355866;28;20062;-76
2022/09/29 03:25:25;;;;;;;12.23;6.47;;;;;;;2.77;94.10;99841.50;10355101;28;20132;-77
2022/09/29 03:30:26;;;;;;;12.10;5.95;;;;;;;2.73;94.04;99833.59;10338226;28;20552;-77
2022/09/29 03:35:29;;;;;;;9.90;5.20;;;;;;;2.72;94.03;99832.75;10355850;28;20129;-76
2022/09/29 03:40:30;;;;;;;12.60;6.05;;;;;;;2.66;94.48;99842.88;10355136;28;20049;-76
2022/09/29 03:45:33;;;;;;;12.38;5.82;;;;;;;2.61;94.25;99840.16;10338585;28;20060;-77
2022/09/29 03:50:35;;;;;;;12.90;6.50;;;;;;;2.60;94.22;99843.53;10354919;28;20524;-78
2022/09/29 03:55:38;;;;;;;14.15;5.68;;;;;;;2.58;94.08;99847.78;10337026;28;20133;-78
2022/09/29 04:00:40;;;;;;;12.02;5.85;;;;;;;2.55;94.40;99859.72;10354435;28;20054;-78
2022/09/29 04:05:44;;;;;;;11.93;5.70;;;;;;;2.53;94.39;99858.78;10356010;28;20092;-79
2022/09/29 04:10:47;;;;;;;8.30;4.60;;;;;;;2.54;94.56;99858.84;10351800;28;20049;-79
2022/09/29 04:15:49;;;;;;;11.05;5.35;;;;;;;2.54;94.24;99864.00;10358723;28;20050;-78
2022/09/29 04:20:51;;;;;;;12.18;5.05;;;;;;;2.50;94.43;99867.31;10331258;28;20128;-79
2022/09/29 04:25:52;;;;;;;9.93;5.22;;;;;;;2.50;94.72;99862.13;10321469;28;20054;-78
2022/09/29 04:30:54;;;;;;;9.82;5.20;;;;;;;2.47;94.45;99868.06;10324657;28;20050;-78
2022/09/29 04:35:58;;;;;;;12.25;5.97;;;;;;;2.46;94.65;99865.44;10309549;28;20487;-78
2022/09/29 04:41:00;;;;;;;12.55;5.32;;;;;;;2.45;94.54;99864.56;10315831;28;20121;-76
2022/09/29 04:46:07;;;;;;;13.05;5.90;;;;;;;2.44;94.55;99867.09;10310448;28;20267;-76
2022/09/29 04:51:09;;;;;;;12.20;6.38;;;;;;;2.41;94.73;99862.69;10342301;28;20344;-78
2022/09/29 04:56:11;;;;;;;11.73;5.97;;;;;;;2.41;94.56;99864.41;10345802;28;20049;-78
2022/09/29 05:01:13;;;;;;;10.98;5.80;;;;;;;2.45;95.08;99871.44;10339335;28;20240;-77
2022/09/29 05:06:16;;;;;;;15.07;6.15;;;;;;;2.55;94.74;99865.78;10353770;28;20056;-77
2022/09/29 05:11:17;;;;;;;11.48;6.13;;;;;;;2.66;94.81;99868.72;10355260;28;20108;-78
2022/09/29 05:16:19;;;;;;;12.80;6.65;;;;;;;2.69;94.77;99865.34;10360318;28;20050;-77
2022/09/29 05:21:21;;;;;;;33.30;7.57;;;;;;;2.79;95.16;99875.19;10329061;28;20132;-77
2022/09/29 05:26:30;;;;;;;12.98;6.50;;;;;;;2.83;95.09;99882.22;10339383;28;20128;-78
2022/09/29 05:31:31;;;;;;;22.77;7.15;;;;;;;2.91;95.16;99885.97;10304625;28;20399;-77
2022/09/29 05:36:34;;;;;;;14.20;5.82;;;;;;;3.00;95.36;99891.44;10332492;28;20532;-77
2022/09/29 05:41:38;;;;;;;31.50;6.35;;;;;;;3.10;95.43;99896.91;10354979;28;20046;-78
2022/09/29 05:46:40;;;;;;;12.63;6.75;;;;;;;3.22;95.35;99886.94;10353952;28;20045;-78
2022/09/29 05:51:44;;;;;;;20.38;6.47;;;;;;;3.31;95.76;99907.94;10319742;28;20057;-77
2022/09/29 05:56:48;;;;;;;25.38;6.60;;;;;;;3.41;95.78;99903.03;10327559;28;20046;-77
2022/09/29 06:01:50;;;;;;;18.58;6.82;;;;;;;3.50;95.88;99908.53;10330186;28;20050;-78
2022/09/29 06:06:54;;;;;;;18.10;7.60;;;;;;;3.64;96.45;99911.56;10348625;28;20060;-79
2022/09/29 06:11:57;;;;;;;11.93;6.18;;;;;;;3.76;96.24;99911.06;10344791;28;20131;-77
2022/09/29 06:16:58;;;;;;;20.60;6.85;;;;;;;3.88;96.34;99919.19;10336806;28;20050;-78
2022/09/29 06:22:00;;;;;;;16.77;8.38;;;;;;;4.07;96.57;99918.91;10341661;28;20062;-79
2022/09/29 06:27:03;;;;;;;18.08;7.57;;;;;;;4.27;96.66;99926.38;10335738;28;20054;-79
2022/09/29 06:32:06;;;;;;;17.90;8.57;;;;;;;4.48;96.99;99920.91;10330134;28;20042;-79
2022/09/29 06:42:28;;;;;;;24.02;7.88;;;;;;;4.74;97.17;99928.53;10327290;28;20076;-78
2022/09/29 06:47:31;;;;;;;19.83;9.35;;;;;;;4.88;97.30;99931.47;10327867;28;20422;-78
2022/09/29 06:52:33;;;;;;;17.20;10.38;;;;;;;5.05;97.56;99935.41;10330442;28;21855;-80
2022/09/29 06:57:36;;;;;;;18.15;8.82;;;;;;;5.28;97.42;99948.09;10312397;28;20435;-78
2022/09/29 07:02:39;;;;;;;15.43;8.27;;;;;;;5.42;97.56;99935.44;10310065;28;20046;-77
2022/09/29 07:07:41;;;;;;;21.38;10.35;;;;;;;5.52;97.26;99933.94;10307678;28;20057;-78
2022/09/29 07:12:45;;;;;;;19.85;10.95;;;;;;;5.84;97.33;99948.56;10316387;28;20057;-78
2022/09/29 07:17:51;;;;;;;17.58;10.43;;;;;;;5.91;97.61;99952.16;10324147;28;20131;-78
2022/09/29 07:22:52;;;;;;;18.42;10.73;;;;;;;6.11;97.74;99955.25;10323371;28;20104;-77
2022/09/29 07:27:54;;;;;;;22.80;13.13;;;;;;;6.15;97.63;99954.47;10306768;28;20053;-78
2022/09/29 07:32:57;;;;;;;18.42;10.45;;;;;;;6.26;97.67;99964.22;10325242;28;20129;-79
2022/09/29 07:38:03;;;;;;;20.30;10.90;;;;;;;6.45;97.25;99961.16;10324431;28;20823;-77
2022/09/29 07:43:06;;;;;;;21.40;12.13;;;;;;;6.73;97.56;99961.72;10320017;28;20548;-79
2022/09/29 07:48:08;;;;;;;22.33;11.57;;;;;;;6.79;97.34;99980.06;10314312;28;20469;-79
2022/09/29 07:53:12;;;;;;;25.58;12.38;;;;;;;6.72;97.29;99984.28;10317117;28;20518;-78
2022/09/29 07:58:14;;;;;;;19.92;11.35;;;;;;;6.92;97.08;99983.78;10301144;28;20052;-79
2022/09/29 08:03:17;;;;;;;24.73;12.15;;;;;;;7.11;96.78;99998.00;10304362;28;20573;-78
2022/09/29 08:08:20;;;;;;;22.23;11.52;;;;;;;7.25;97.05;100006.06;10289039;28;20383;-78
2022/09/29 08:13:22;;;;;;;20.17;11.85;;;;;;;7.19;96.50;100014.66;10303994;28;20112;-78
2022/09/29 08:18:24;;;;;;;23.00;12.25;;;;;;;7.30;96.29;100007.03;10312256;28;20085;-79
2022/09/29 08:23:26;;;;;;;23.30;13.57;;;;;;;7.26;96.22;100013.03;10300384;28;20047;-78
2022/09/29 08:28:30;;;;;;;24.92;14.15;;;;;;;7.40;96.13;100016.78;10313350;28;20046;-78
2022/09/29 08:33:34;;;;;;;20.90;11.95;;;;;;;7.40;96.20;100029.78;10313709;28;20050;-79
2022/09/29 08:38:41;;;;;;;27.35;13.93;;;;;;;7.84;96.14;100036.59;10311956;28;20445;-79
2022/09/29 08:43:45;;;;;;;27.88;14.85;;;;;;;8.09;96.23;100029.16;10288924;28;20057;-79
2022/09/29 08:48:48;;;;;;;28.02;15.23;;;;;;;8.20;96.04;100039.78;10330740;28;20510;-78
2022/09/29 08:54:07;;;;;;;27.35;13.32;;;;;;;8.10;95.66;100033.53;10316989;28;20364;-78
2022/09/29 08:59:10;;;;;;;26.33;14.30;;;;;;;8.06;95.58;100052.56;10302346;28;20053;-78
2022/09/29 09:04:27;;;;;;;26.50;15.05;;;;;;;8.23;95.50;100043.28;10331806;28;20054;-77
2022/09/29 09:09:58;;;;;;;29.50;16.17;;;;;;;8.61;95.17;100053.41;10315158;28;20050;-78
2022/09/29 09:15:20;;;;;;;;;;;;;;;8.93;95.06;100059.88;10293606;28;22702;-78
2022/09/29 09:20:32;;;;;;;32.67;17.83;;;;;;;8.95;94.81;100059.06;10289310;28;19925;-78
2022/09/29 09:25:40;;;;;;;25.30;14.80;;;;;;;9.18;94.46;100053.22;10311364;28;20050;-78
2022/09/29 09:31:02;;;;;;;31.58;16.00;;;;;;;9.77;93.88;100061.63;10309299;28;20124;-78
2022/09/29 09:36:23;;;;;;;24.05;14.48;;;;;;;9.98;93.09;100061.81;10288360;28;20050;-78
2022/09/29 09:41:37;;;;;;;24.70;13.30;;;;;;;10.57;92.36;100057.03;10325130;28;20058;-79
2022/09/29 09:46:48;;;;;;;25.10;15.23;;;;;;;11.64;91.14;100051.22;10326674;28;20431;-77
2022/09/29 09:51:56;;;;;;;25.58;12.95;;;;;;;12.41;89.05;100050.34;10350885;28;20061;-77
2022/09/29 09:57:22;;;;;;;22.20;12.30;;;;;;;11.84;86.96;100063.47;10331630;28;20536;-77
2022/09/29 10:02:24;;;;;;;23.60;13.02;;;;;;;12.11;86.08;100057.38;10351232;28;20050;-77
2022/09/29 10:07:29;;;;;;;16.33;9.93;;;;;;;12.09;85.14;100059.13;10351671;28;20411;-77
2022/09/29 10:12:30;;;;;;;19.70;10.00;;;;;;;12.39;84.51;100067.84;10343562;28;20046;-77
2022/09/29 10:17:41;;;;;;;16.33;9.73;;;;;;;12.83;83.48;100058.97;10337014;28;20053;-77
2022/09/29 10:22:44;;;;;;;16.85;9.63;;;;;;;13.18;82.58;100057.94;10337104;28;20046;-77
2022/09/29 10:27:56;;;;;;;13.43;7.35;;;;;;;13.43;81.29;100066.59;10335169;28;21238;-77
2022/09/29 10:32:59;;;;;;;;;;;;;;;12.95;80.33;100063.31;10319641;28;20434;-77
2022/09/29 10:38:06;;;;;;;13.23;6.93;;;;;;;13.17;80.23;100069.34;10333915;28;19928;-78
2022/09/29 10:43:26;;;;;;;14.18;6.65;;;;;;;13.58;79.28;100070.88;10331088;28;20041;-77
2022/09/29 10:48:28;;;;;;;12.90;6.78;;;;;;;13.48;78.41;100074.47;10356801;28;20050;-77
2022/09/29 10:53:37;;;;;;;14.43;6.68;;;;;;;13.54;78.04;100084.06;10348296;28;20042;-78
2022/09/29 10:58:41;;;;;;;10.30;5.90;;;;;;;13.78;77.62;100080.38;10359635;28;20038;-78
2022/09/29 11:04:12;;;;;;;11.45;5.97;;;;;;;13.85;76.40;100084.72;10338197;28;20050;-77
2022/09/29 11:09:16;;;;;;;12.68;6.45;;;;;;;13.56;76.46;100088.44;10355840;28;20506;-78
2022/09/29 11:14:35;;;;;;;12.63;5.63;;;;;;;13.87;76.18;100082.97;10349073;28;20532;-77
2022/09/29 11:19:39;;;;;;;10.35;5.20;;;;;;;13.77;75.11;100090.03;10356426;28;20071;-78
2022/09/29 11:24:55;;;;;;;10.32;5.32;;;;;;;13.72;74.68;100088.31;10355801;28;20046;-75
2022/09/29 11:30:11;;;;;;;8.15;4.10;;;;;;;13.74;74.28;100092.69;10355222;28;20050;-77
2022/09/29 11:35:37;;;;;;;8.88;4.70;;;;;;;13.99;74.38;100091.63;10354229;28;20108;-77
2022/09/29 11:40:46;;;;;;;8.40;3.95;;;;;;;13.96;73.63;100092.53;10337018;28;20505;-75
2022/09/29 11:46:04;;;;;;;6.45;3.08;;;;;;;14.20;73.67;100094.09;10358645;28;20113;-78
2022/09/29 11:51:29;;;;;;;15.23;5.32;;;;;;;14.47;73.20;100099.97;10360621;28;20528;-77
2022/09/29 11:57:03;;;;;;;11.25;4.18;;;;;;;14.78;72.28;100099.69;10328431;28;20049;-79
2022/09/29 12:02:41;;;;;;;16.45;5.45;;;;;;;15.03;71.71;100095.03;10340975;28;20046;-78
2022/09/29 12:08:12;;;;;;;9.97;3.73;;;;;;;14.85;70.63;100106.66;10325114;28;20049;-78
2022/09/29 12:13:41;;;;;;;17.85;8.82;;;;;;;14.97;70.28;100103.88;10329649;28;20053;-78
2022/09/29 12:19:10;;;;;;;7.68;4.28;;;;;;;14.91;69.69;100103.94;10307925;28;20065;-78
2022/09/29 12:24:21;;;;;;;7.97;4.40;;;;;;;15.03;70.10;100098.53;10348546;28;20588;-77
2022/09/29 12:29:35;;;;;;;7.97;4.32;;;;;;;14.93;70.01;100104.78;10349924;28;20421;-77
2022/09/29 12:34:50;;;;;;;7.68;4.03;;;;;;;14.98;69.58;100105.63;10351034;28;20049;-77
2022/09/29 12:40:14;;;;;;;7.88;3.90;;;;;;;15.15;69.32;100100.13;10352911;28;20104;-77
2022/09/29 12:45:27;;;;;;;7.32;3.35;;;;;;;14.74;68.74;100113.78;10334025;28;20475;-77
2022/09/29 12:50:43;;;;;;;6.70;3.53;;;;;;;14.63;68.82;100113.91;10353663;28;20045;-77
2022/09/29 12:55:52;;;;;;;6.95;3.45;;;;;;;14.42;69.05;100114.97;10348011;28;20487;-77
2022/09/29 13:01:08;;;;;;;6.13;3.07;;;;;;;14.59;69.98;100110.41;10355478;28;20050;-77
2022/09/29 13:06:32;;;;;;;6.30;2.33;;;;;;;14.76;69.42;100112.03;10360763;28;20595;-78
2022/09/29 13:11:58;;;;;;;4.60;2.17;;;;;;;14.60;68.80;100125.31;10361028;28;20061;-78
2022/09/29 13:17:15;;;;;;;2.05;1.05;;;;;;;14.84;68.76;100118.06;10352008;28;20050;-78
2022/09/29 13:22:49;;;;;;;2.70;1.02;;;;;;;14.94;67.34;100116.22;10359445;28;20719;-77
2022/09/29 13:27:52;;;;;;;1.30;0.68;;;;;;;14.72;66.52;100126.13;10352251;28;20046;-78
2022/09/29 13:33:10;;;;;;;4.32;1.25;;;;;;;14.54;66.38;100122.75;10342285;28;20050;-77
2022/09/29 13:38:19;;;;;;;3.63;1.60;;;;;;;14.87;66.74;100118.03;10367456;28;20050;-78
2022/09/29 13:43:49;;;;;;;3.80;1.85;;;;;;;15.15;66.34;100113.31;10353652;28;20046;-78
2022/09/29 13:49:00;;;;;;;4.35;1.85;;;;;;;15.09;66.12;100126.59;10340861;28;20643;-78
2022/09/29 13:54:23;;;;;;;5.57;2.08;;;;;;;14.92;66.47;100121.53;10357665;28;20053;-78
2022/09/29 13:59:27;;;;;;;4.90;1.80;;;;;;;14.92;66.22;100123.25;10357073;28;20425;-78
2022/09/29 14:04:39;;;;;;;4.18;1.70;;;;;;;14.82;66.54;100118.09;10357096;28;20065;-78
2022/09/29 14:09:46;;;;;;;5.75;1.83;;;;;;;14.83;67.22;100122.50;10352380;28;20042;-78
2022/09/29 14:14:59;;;;;;;3.70;1.50;;;;;;;14.90;66.30;100123.28;10358733;28;20053;-77
2022/09/29 14:20:13;;;;;;;5.82;2.30;;;;;;;14.72;66.21;100131.41;10326024;28;20047;-78
2022/09/29 14:25:15;;;;;;;4.78;1.58;;;;;;;14.63;67.01;100133.22;10348125;28;20426;-78
2022/09/29 14:30:40;;;;;;;5.10;2.40;;;;;;;14.67;66.83;100140.22;10353477;28;20065;-78
2022/09/29 14:35:48;;;;;;;4.30;1.90;;;;;;;14.55;66.79;100139.44;10340367;28;20052;-78
2022/09/29 14:41:06;;;;;;;5.32;2.00;;;;;;;14.50;66.65;100147.34;10317521;28;20178;-78
2022/09/29 14:52:08;;;;;;;;;;;;;;;14.24;67.54;100151.09;10334919;28;20072;-77
2022/09/29 14:57:41;;;;;;;4.88;1.98;;;;;;;14.24;67.75;100156.38;10341694;28;19925;-77
2022/09/29 15:02:48;;;;;;;2.55;1.33;;;;;;;14.07;67.89;100174.06;10344946;28;20053;-77
2022/09/29 15:08:02;;;;;;;2.65;1.20;;;;;;;13.92;68.94;100175.91;10338801;28;20179;-78
2022/09/29 15:13:27;;;;;;;2.33;1.33;;;;;;;13.65;70.41;100171.69;10347280;28;20072;-78
2022/09/29 15:19:00;;;;;;;2.20;1.20;;;;;;;13.44;71.33;100188.44;10345340;28;20042;-78
2022/09/29 15:24:14;;;;;;;2.28;1.20;;;;;;;13.23;72.33;100194.63;10350373;28;20046;-78
2022/09/29 15:29:17;;;;;;;5.30;1.33;;;;;;;12.97;72.82;100202.56;10337459;28;20046;-77
2022/09/29 15:34:24;;;;;;;2.67;1.23;;;;;;;12.70;73.71;100209.59;10330756;28;20107;-78
2022/09/29 15:39:28;;;;;;;2.13;1.30;;;;;;;12.38;74.86;100215.75;10322194;28;20050;-78
2022/09/29 15:44:32;;;;;;;1.67;0.98;;;;;;;12.18;75.68;100218.38;10353077;28;20053;-79
2022/09/29 15:49:38;;;;;;;2.83;1.20;;;;;;;11.90;76.85;100218.25;10345881;28;20038;-79
2022/09/29 15:54:53;;;;;;;1.35;1.00;;;;;;;11.55;78.43;100223.41;10334222;28;20038;-82
2022/09/29 16:00:46;;;;;;;4.00;1.40;;;;;;;11.32;80.55;100234.66;10348321;28;20042;-80
2022/09/29 16:06:04;;;;;;;3.85;1.40;;;;;;;11.18;82.23;100231.94;10356033;28;20061;-80
2022/09/29 16:11:24;;;;;;;2.42;1.10;;;;;;;11.13;83.50;100237.16;10342270;28;20050;-81
2022/09/29 16:16:47;;;;;;;3.72;1.80;;;;;;;11.17;84.38;100240.69;10358163;28;20042;-80
2022/09/29 16:22:05;;;;;;;9.32;3.03;;;;;;;11.13;85.34;100245.03;10364686;28;20042;-80
2022/09/29 16:27:42;;;;;;;5.40;2.05;;;;;;;11.03;86.02;100261.53;10365440;28;20674;-80
2022/09/29 16:33:01;;;;;;;8.82;3.95;;;;;;;10.84;86.44;100272.75;10346609;28;20481;-81
2022/09/29 16:38:09;;;;;;;10.32;4.80;;;;;;;10.75;87.33;100269.22;10358525;28;20046;-81
2022/09/29 16:43:25;;;;;;;8.43;4.18;;;;;;;10.89;87.75;100281.53;10353566;28;20132;-81
2022/09/29 16:48:35;;;;;;;6.65;3.20;;;;;;;10.88;88.19;100279.78;10368510;28;20046;-81
2022/09/29 16:53:37;;;;;;;4.97;2.30;;;;;;;10.71;88.39;100280.53;10321132;28;20042;-80
2022/09/29 16:58:38;;;;;;;3.15;1.70;;;;;;;10.61;88.78;100283.91;10368802;28;20049;-81
2022/09/29 17:03:41;;;;;;;3.97;1.98;;;;;;;10.59;88.97;100291.75;10346591;28;20065;-81
2022/09/29 17:08:43;;;;;;;5.72;2.30;;;;;;;10.52;89.36;100284.72;10361586;28;20041;-80
2022/09/29 17:13:52;;;;;;;4.95;2.10;;;;;;;10.36;89.45;100290.69;10349797;28;20108;-80
2022/09/29 17:19:10;;;;;;;5.40;1.88;;;;;;;10.26;89.70;100294.91;10331794;28;20034;-80
2022/09/29 17:24:11;;;;;;;4.60;2.00;;;;;;;10.25;90.20;100298.38;10342948;28;20134;-80
2022/09/29 17:29:13;;;;;;;4.78;2.20;;;;;;;10.15;90.20;100292.19;10352504;28;20069;-81
2022/09/29 17:34:25;;;;;;;5.63;2.58;;;;;;;10.11;90.49;100294.75;10333216;28;20069;-80
2022/09/29 17:39:28;;;;;;;6.85;2.90;;;;;;;10.09;90.76;100295.59;10335775;28;20053;-80
2022/09/29 17:44:30;;;;;;;5.75;2.83;;;;;;;10.02;90.78;100304.22;10350458;28;20238;-80
2022/09/29 17:49:39;;;;;;;6.25;2.60;;;;;;;9.95;91.37;100312.00;10350725;28;20104;-80
2022/09/29 17:54:45;;;;;;;7.10;2.70;;;;;;;9.91;91.03;100318.94;10304734;28;20117;-80
2022/09/29 17:59:59;;;;;;;17.00;6.30;;;;;;;9.87;91.28;100327.59;10342314;28;20050;-80
2022/09/29 18:05:02;;;;;;;22.23;10.45;;;;;;;9.80;91.20;100323.13;10338872;28;20046;-80
2022/09/29 18:10:34;;;;;;;5.93;2.92;;;;;;;9.65;91.26;100323.81;10342040;28;20068;-79
2022/09/29 18:15:38;;;;;;;9.57;3.70;;;;;;;9.57;91.43;100331.56;10325011;28;20090;-79
2022/09/29 18:20:46;;;;;;;17.27;8.07;;;;;;;9.50;91.64;100341.06;10322741;28;20056;-81
2022/09/29 18:25:55;;;;;;;17.33;7.28;;;;;;;9.46;91.63;100344.47;10293663;28;20046;-80
2022/09/29 18:31:27;;;;;;;20.73;7.97;;;;;;;9.35;91.57;100336.47;10337722;28;20124;-80
2022/09/29 18:36:32;;;;;;;27.45;12.38;;;;;;;9.28;91.71;100345.06;10336048;28;20073;-79
2022/09/29 18:41:49;;;;;;;15.68;7.38;;;;;;;9.20;91.78;100351.91;10321628;28;20670;-77
2022/09/29 18:46:57;;;;;;;12.25;6.15;;;;;;;9.11;91.94;100347.44;10317180;28;20535;-80
2022/09/29 18:51:59;;;;;;;17.52;9.18;;;;;;;9.05;91.89;100349.06;10350025;28;20062;-80
2022/09/29 18:57:01;;;;;;;14.60;7.30;;;;;;;9.03;91.92;100355.13;10320100;28;20129;-79
2022/09/29 19:02:14;;;;;;;14.15;6.93;;;;;;;9.02;92.06;100358.59;10316927;28;20069;-80
2022/09/29 19:07:28;;;;;;;10.35;5.00;;;;;;;9.03;92.01;100360.34;10313141;28;20058;-80
2022/09/29 19:12:35;;;;;;;7.85;4.30;;;;;;;9.02;92.12;100362.94;10362521;28;20061;-80
2022/09/29 19:17:42;;;;;;;13.35;6.32;;;;;;;9.00;92.29;100369.88;10319234;28;20132;-80
2022/09/29 19:22:53;;;;;;;11.52;5.65;;;;;;;8.94;92.18;100375.88;10318930;28;20537;-79
2022/09/29 19:28:08;;;;;;;38.10;13.90;;;;;;;8.92;92.40;100390.63;10331327;28;20049;-79
2022/09/29 19:33:34;;;;;;;26.98;12.32;;;;;;;8.93;92.43;100389.78;10325332;28;20073;-79
2022/09/29 19:38:42;;;;;;;10.98;4.68;;;;;;;8.94;92.41;100396.75;10341410;28;20066;-79
2022/09/29 19:43:46;;;;;;;9.35;5.25;;;;;;;8.96;92.49;100400.28;10333882;28;20045;-79
2022/09/29 19:48:49;;;;;;;11.32;4.25;;;;;;;8.97;92.68;100403.78;10321664;28;20060;-79
2022/09/29 19:54:09;;;;;;;11.90;6.18;;;;;;;8.99;92.85;100407.28;10355393;28;20066;-79
2022/09/29 20:25:09;;;;;;;8.30;3.80;;;;;;;9.10;93.59;100434.47;10282610;23;20521;-78
2022/09/29 20:30:11;;;;;;;24.65;11.68;;;;;;;9.18;93.81;100447.66;10344063;28;20056;-78
2022/09/29 20:35:15;;;;;;;14.00;6.65;;;;;;;9.23;93.86;100451.22;10344148;28;20054;-78
2022/09/29 20:40:22;;;;;;;18.55;8.85;;;;;;;9.19;93.95;100458.13;10362003;28;20049;-78
2022/09/29 20:45:24;;;;;;;13.05;6.35;;;;;;;9.18;93.73;100445.91;10338250;28;20066;-78
2022/09/29 20:50:27;;;;;;;11.95;5.97;;;;;;;9.17;93.92;100458.97;10344640;28;20054;-78
2022/09/29 20:55:29;;;;;;;8.60;4.53;;;;;;;9.13;93.78;100459.78;10348295;28;20109;-78
2022/09/29 21:00:30;;;;;;;9.85;5.22;;;;;;;9.11;93.92;100466.69;10343527;28;20050;-78
2022/09/29 21:05:32;;;;;;;9.73;4.80;;;;;;;9.09;94.18;100477.13;10372026;28;20457;-78
2022/09/29 21:10:34;;;;;;;14.93;5.20;;;;;;;9.10;94.04;100483.25;10356365;28;20104;-78
2022/09/29 21:15:36;;;;;;;9.50;5.13;;;;;;;9.09;94.33;100491.91;10354563;28;20050;-78
2022/09/29 21:20:38;;;;;;;9.60;5.30;;;;;;;9.11;94.42;100498.94;10359583;28;20484;-78
2022/09/29 21:25:41;;;;;;;9.52;4.82;;;;;;;9.12;94.50;100489.34;10361230;28;20129;-78
2022/09/29 21:30:42;;;;;;;9.07;4.85;;;;;;;9.11;94.48;100493.72;10359745;28;20081;-79
2022/09/29 21:35:53;;;;;;;8.45;4.65;;;;;;;9.12;94.65;100505.03;10330911;28;20050;-78
2022/09/29 21:41:05;;;;;;;9.35;4.22;;;;;;;9.12;94.60;100499.81;10358087;28;20657;-79
2022/09/29 21:46:07;;;;;;;8.57;4.30;;;;;;;9.16;94.72;100501.63;10364438;28;20053;-77
2022/09/29 21:51:18;;;;;;;8.05;4.10;;;;;;;9.15;94.62;100505.09;10337756;28;20054;-79
2022/09/29 21:56:22;;;;;;;8.10;4.47;;;;;;;9.14;94.76;100501.59;10360020;28;20101;-78
2022/09/29 22:01:25;;;;;;;7.75;4.40;;;;;;;9.13;94.58;100504.19;10360637;28;20660;-79
2022/09/29 22:06:30;;;;;;;9.90;3.75;;;;;;;9.10;94.58;100512.84;10350453;28;21384;-78
2022/09/29 22:11:35;;;;;;;8.30;4.03;;;;;;;9.09;94.64;100510.19;10354164;28;20526;-79
2022/09/29 22:16:36;;;;;;;7.57;4.05;;;;;;;9.03;94.78;100504.00;10338567;28;20057;-79
2022/09/29 22:21:39;;;;;;;8.13;4.25;;;;;;;9.01;94.78;100512.66;10339149;28;20169;-78
2022/09/29 22:26:41;;;;;;;9.07;4.68;;;;;;;8.92;94.74;100513.38;10356735;28;20061;-78
2022/09/29 22:31:44;;;;;;;7.07;4.43;;;;;;;8.83;94.74;100511.44;10353321;28;20301;-78
2022/09/29 22:36:48;;;;;;;7.07;4.28;;;;;;;8.77;94.71;100500.88;10317300;28;20338;-78
2022/09/29 22:41:51;;;;;;;9.27;5.20;;;;;;;8.71;94.84;100512.91;10353696;28;20054;-78
2022/09/29 22:46:53;;;;;;;8.88;4.78;;;;;;;8.68;94.86;100524.22;10327056;28;20084;-78
2022/09/29 22:51:56;;;;;;;8.68;4.55;;;;;;;8.66;94.86;100518.06;10335046;28;20417;-78
2022/09/29 22:56:57;;;;;;;8.15;4.38;;;;;;;8.67;94.79;100531.13;10351308;28;20053;-79
2022/09/29 23:02:00;;;;;;;8.23;4.35;;;;;;;8.69;95.03;100533.78;10337099;28;20064;-79
2022/09/29 23:07:07;;;;;;;8.02;4.38;;;;;;;8.70;95.12;100521.63;10343657;28;20140;-78
2022/09/29 23:12:10;;;;;;;8.20;4.60;;;;;;;8.71;95.33;100521.66;10336381;28;20060;-78
2022/09/29 23:17:12;;;;;;;7.78;4.22;;;;;;;8.70;95.16;100521.63;10349238;28;20137;-78
2022/09/29 23:22:14;;;;;;;8.48;4.47;;;;;;;8.72;95.35;100519.91;10347755;28;20195;-78
2022/09/29 23:27:20;;;;;;;9.75;4.25;;;;;;;8.73;95.48;100521.69;10349941;28;20054;-78
2022/09/29 23:32:22;;;;;;;8.32;4.88;;;;;;;8.79;95.63;100524.41;10352844;28;20517;-78
2022/09/29 23:39:08;;;;;;;7.43;4.13;;;;;;;8.81;95.51;100531.44;10354872;28;20050;-78
2022/09/29 23:42:47;;;;;;;7.85;4.10;;;;;;;8.79;95.66;100532.25;10330756;28;20103;-78
2022/09/29 23:47:49;;;;;;;6.65;4.00;;;;;;;8.76;95.40;100529.56;10355709;28;20045;-78
2022/09/29 23:52:53;;;;;;;8.73;4.28;;;;;;;8.76;95.63;100535.66;10353796;28;20510;-78
2022/09/29 23:57:56;;;;;;;8.77;4.55;;;;;;;8.74;95.59;100537.38;10335368;28;20054;-78
